createdAt,value
2022-10-12T00:01:00.980Z,89.25
2022-10-12T00:03:27.492Z,89.39
2022-10-12T00:06:04.278Z,89.24
2022-10-12T00:08:31.253Z,89.80
2022-10-12T00:10:58.191Z,89.65
2022-10-12T00:13:24.984Z,89.38
2022-10-12T00:15:51.488Z,89.54
2022-10-12T00:18:18.289Z,89.28
2022-10-12T00:20:45.050Z,89.07
2022-10-12T00:23:11.721Z,88.94
2022-10-12T00:25:40.085Z,89.10
2022-10-12T00:28:07.422Z,89.09
2022-10-12T00:30:34.655Z,88.82
2022-10-12T00:33:01.182Z,88.88
2022-10-12T00:35:30.483Z,88.90
2022-10-12T00:37:56.993Z,88.80
2022-10-12T00:40:23.852Z,89.39
2022-10-12T00:42:50.568Z,89.51
2022-10-12T00:45:17.360Z,89.70
2022-10-12T00:47:56.805Z,89.53
2022-10-12T00:50:29.382Z,89.57
2022-10-12T00:53:00.933Z,89.89
2022-10-12T00:55:31.809Z,89.82
2022-10-12T00:57:59.123Z,89.92
2022-10-12T01:00:26.088Z,89.78
2022-10-12T01:02:54.901Z,89.73
2022-10-12T01:05:22.961Z,90.04
2022-10-12T01:07:49.771Z,90.16
2022-10-12T01:10:16.655Z,89.49
2022-10-12T01:12:44.989Z,89.47
2022-10-12T01:15:12.529Z,89.51
2022-10-12T01:17:57.270Z,89.47
2022-10-12T01:20:23.833Z,89.55
2022-10-12T01:23:21.095Z,89.41
2022-10-12T01:26:14.989Z,89.36
2022-10-12T01:29:08.666Z,89.16
2022-10-12T01:31:49.596Z,89.18
2022-10-12T01:34:42.579Z,88.69
2022-10-12T01:37:18.637Z,88.65
2022-10-12T01:39:53.951Z,88.75
2022-10-12T01:42:26.497Z,89.08
2022-10-12T01:45:03.958Z,88.70
2022-10-12T01:47:31.425Z,88.81
2022-10-12T01:49:58.783Z,88.97
2022-10-12T01:52:41.641Z,88.70
2022-10-12T01:55:19.564Z,88.80
2022-10-12T01:58:00.967Z,88.63
2022-10-12T02:00:32.917Z,88.22
2022-10-12T02:03:14.233Z,88.21
2022-10-12T02:05:59.310Z,88.17
2022-10-12T02:08:34.401Z,88.32
2022-10-12T02:11:06.982Z,88.25
2022-10-12T02:13:38.474Z,88.25
2022-10-12T02:16:10.387Z,88.29
2022-10-12T02:18:42.437Z,88.63
2022-10-12T02:21:13.120Z,88.31
2022-10-12T02:23:40.136Z,88.69
2022-10-12T02:26:08.015Z,88.20
2022-10-12T02:28:37.246Z,88.65
2022-10-12T02:31:28.582Z,88.22
2022-10-12T02:34:04.462Z,88.30
2022-10-12T02:37:08.369Z,88.77
2022-10-12T02:39:45.446Z,88.93
2022-10-12T02:42:15.274Z,88.59
2022-10-12T02:44:43.627Z,88.47
2022-10-12T02:47:11.718Z,88.47
2022-10-12T02:49:40.129Z,88.72
2022-10-12T02:52:07.835Z,88.96
2022-10-12T02:54:34.439Z,88.47
2022-10-12T02:57:00.882Z,88.83
2022-10-12T02:59:27.308Z,88.66
2022-10-12T03:01:54.015Z,88.72
2022-10-12T03:04:20.737Z,88.66
2022-10-12T03:06:47.260Z,88.95
2022-10-12T03:09:14.152Z,89.00
2022-10-12T03:11:43.900Z,89.26
2022-10-12T03:14:12.426Z,89.46
2022-10-12T03:16:39.377Z,88.82
2022-10-12T03:19:05.843Z,88.62
2022-10-12T03:21:32.334Z,88.74
2022-10-12T03:23:58.802Z,88.75
2022-10-12T03:26:25.331Z,88.98
2022-10-12T03:28:51.805Z,88.94
2022-10-12T03:31:18.588Z,89.25
2022-10-12T03:33:45.074Z,89.14
2022-10-12T03:36:11.476Z,89.08
2022-10-12T03:38:38.044Z,89.43
2022-10-12T03:41:06.871Z,89.18
2022-10-12T03:43:34.307Z,89.24
2022-10-12T03:46:00.837Z,89.48
2022-10-12T03:48:27.363Z,89.13
2022-10-12T03:50:53.869Z,89.07
2022-10-12T03:53:21.119Z,88.95
2022-10-12T03:55:47.674Z,88.79
2022-10-12T03:58:14.677Z,88.61
2022-10-12T04:00:41.414Z,88.69
2022-10-12T04:03:07.879Z,88.51
2022-10-12T04:05:34.436Z,88.61
2022-10-12T04:08:00.890Z,88.54
2022-10-12T04:10:27.573Z,88.43
2022-10-12T04:12:54.107Z,88.46
2022-10-12T04:17:47.426Z,88.96
2022-10-12T04:20:14.042Z,88.61
2022-10-12T04:22:40.474Z,88.65
2022-10-12T04:25:07.275Z,89.02
2022-10-12T04:27:33.776Z,89.08
2022-10-12T04:30:00.157Z,89.02
2022-10-12T04:32:29.133Z,88.58
2022-10-12T04:34:55.663Z,88.55
2022-10-12T04:37:22.264Z,88.76
2022-10-12T04:39:48.752Z,88.65
2022-10-12T04:42:15.226Z,88.78
2022-10-12T04:44:41.637Z,88.54
2022-10-12T04:47:08.065Z,89.16
2022-10-12T04:49:34.590Z,88.91
2022-10-12T04:52:01.108Z,88.81
2022-10-12T04:54:27.561Z,89.14
2022-10-12T04:56:54.044Z,88.71
2022-10-12T04:59:20.575Z,88.51
2022-10-12T05:01:47.312Z,89.37
2022-10-12T05:04:13.873Z,89.38
2022-10-12T05:06:40.339Z,90.10
2022-10-12T05:09:06.911Z,89.90
2022-10-12T05:11:33.616Z,90.27
2022-10-12T05:14:00.198Z,90.12
2022-10-12T05:16:26.587Z,90.02
2022-10-12T05:18:53.041Z,89.74
2022-10-12T05:21:19.826Z,89.47
2022-10-12T05:23:50.815Z,89.05
2022-10-12T05:26:17.594Z,89.46
2022-10-12T05:28:44.296Z,89.05
2022-10-12T05:31:11.044Z,89.29
2022-10-12T05:33:37.513Z,89.36
2022-10-12T05:36:04.575Z,89.29
2022-10-12T05:38:31.081Z,89.07
2022-10-12T05:41:00.526Z,89.55
2022-10-12T05:43:28.555Z,89.60
2022-10-12T05:45:55.337Z,89.61
2022-10-12T05:48:21.797Z,89.25
2022-10-12T05:50:48.390Z,89.86
2022-10-12T05:53:15.014Z,89.33
2022-10-12T05:55:58.320Z,89.76
2022-10-12T05:58:26.769Z,89.92
2022-10-12T06:00:53.332Z,90.16
2022-10-12T06:03:25.352Z,90.88
2022-10-12T06:05:52.717Z,90.50
2022-10-12T06:08:19.345Z,90.33
2022-10-12T06:10:49.824Z,90.00
2022-10-12T06:13:17.848Z,89.82
2022-10-12T06:15:48.117Z,90.27
2022-10-12T06:18:15.818Z,89.83
2022-10-12T06:20:49.790Z,89.20
2022-10-12T06:23:17.461Z,89.34
2022-10-12T06:25:47.586Z,89.49
2022-10-12T06:28:15.642Z,89.20
2022-10-12T06:30:42.564Z,89.34
2022-10-12T06:33:09.479Z,89.20
2022-10-12T06:35:36.001Z,88.96
2022-10-12T06:38:02.590Z,89.09
2022-10-12T06:40:29.020Z,89.06
2022-10-12T06:42:58.608Z,88.64
2022-10-12T06:45:26.001Z,89.07
2022-10-12T06:47:52.649Z,88.88
2022-10-12T06:50:19.123Z,88.76
2022-10-12T06:52:47.058Z,89.05
2022-10-12T06:55:13.755Z,89.48
2022-10-12T06:57:40.410Z,89.18
2022-10-12T07:00:08.937Z,89.96
2022-10-12T07:02:35.902Z,90.01
2022-10-12T07:05:03.320Z,90.20
2022-10-12T07:07:31.703Z,90.84
2022-10-12T07:09:58.227Z,91.10
2022-10-12T07:12:24.773Z,91.14
2022-10-12T07:14:51.242Z,91.17
2022-10-12T07:17:17.823Z,91.30
2022-10-12T07:19:44.263Z,91.13
2022-10-12T07:22:10.747Z,91.50
2022-10-12T07:24:37.215Z,91.56
2022-10-12T07:27:06.134Z,91.43
2022-10-12T07:29:33.319Z,91.69
2022-10-12T07:32:00.041Z,91.41
2022-10-12T07:34:27.410Z,91.88
2022-10-12T07:36:59.637Z,91.57
2022-10-12T07:39:26.748Z,91.55
2022-10-12T07:41:54.191Z,91.37
2022-10-12T07:44:22.533Z,91.41
2022-10-12T07:46:49.095Z,91.57
2022-10-12T07:49:16.394Z,91.41
2022-10-12T07:51:43.131Z,91.51
2022-10-12T07:54:10.184Z,91.83
2022-10-12T07:56:36.633Z,91.27
2022-10-12T07:59:04.153Z,91.52
2022-10-12T08:01:31.463Z,91.66
2022-10-12T08:04:01.722Z,91.15
2022-10-12T08:06:31.058Z,91.27
2022-10-12T08:08:58.839Z,90.98
2022-10-12T08:11:25.373Z,91.01
2022-10-12T08:13:51.843Z,91.04
2022-10-12T08:16:20.149Z,91.29
2022-10-12T08:18:46.987Z,90.65
2022-10-12T08:21:15.535Z,90.72
2022-10-12T08:23:44.561Z,90.15
2022-10-12T08:26:11.741Z,90.52
2022-10-12T08:28:38.288Z,90.60
2022-10-12T08:31:09.857Z,90.46
2022-10-12T08:33:36.697Z,89.87
2022-10-12T08:36:04.875Z,89.51
2022-10-12T08:38:31.511Z,89.14
2022-10-12T08:41:17.421Z,88.87
2022-10-12T08:44:31.619Z,88.32
2022-10-12T08:47:04.794Z,85.65
2022-10-12T08:49:32.077Z,84.41
2022-10-12T08:52:03.314Z,83.79
2022-10-12T08:54:35.495Z,84.05
2022-10-12T08:57:01.986Z,84.15
2022-10-12T08:59:29.535Z,83.81
2022-10-12T09:02:01.805Z,84.34
2022-10-12T09:04:58.662Z,82.02
2022-10-12T09:07:49.098Z,81.15
2022-10-12T09:10:35.303Z,81.02
2022-10-12T09:13:16.932Z,80.70
2022-10-12T09:15:56.685Z,77.09
2022-10-12T09:18:40.875Z,76.72
2022-10-12T09:21:17.981Z,75.88
2022-10-12T09:23:44.808Z,75.32
2022-10-12T09:26:42.132Z,74.13
2022-10-12T09:29:29.852Z,74.88
2022-10-12T09:31:56.805Z,75.26
2022-10-12T09:34:24.357Z,73.61
2022-10-12T09:36:51.249Z,73.33
2022-10-12T09:39:28.964Z,72.41
2022-10-12T09:41:56.245Z,71.67
2022-10-12T09:44:33.541Z,71.98
2022-10-12T09:47:02.593Z,71.88
2022-10-12T09:49:50.314Z,71.20
2022-10-12T09:52:20.315Z,71.30
2022-10-12T09:54:51.105Z,70.70
2022-10-12T09:57:23.625Z,69.36
2022-10-12T09:59:51.336Z,69.08
2022-10-12T10:02:19.711Z,69.67
2022-10-12T10:04:48.402Z,69.57
2022-10-12T10:07:30.697Z,67.50
2022-10-12T10:10:15.605Z,67.37
2022-10-12T10:12:58.845Z,67.36
2022-10-12T10:15:32.242Z,67.46
2022-10-12T10:18:04.801Z,65.79
2022-10-12T10:20:42.845Z,65.74
2022-10-12T10:23:24.633Z,65.30
2022-10-12T10:26:05.797Z,64.01
2022-10-12T10:28:37.912Z,64.18
2022-10-12T10:31:27.727Z,63.32
2022-10-12T10:34:09.793Z,61.98
2022-10-12T10:36:52.013Z,61.99
2022-10-12T10:39:23.052Z,62.69
2022-10-12T10:41:50.576Z,61.71
2022-10-12T10:44:30.438Z,62.55
2022-10-12T10:47:09.665Z,61.48
2022-10-12T10:49:50.806Z,60.77
2022-10-12T10:52:20.274Z,61.04
2022-10-12T10:54:46.887Z,60.89
2022-10-12T10:57:20.418Z,58.85
2022-10-12T10:59:52.637Z,59.34
2022-10-12T11:02:27.397Z,58.16
2022-10-12T11:05:20.361Z,58.26
2022-10-12T11:08:19.469Z,59.50
2022-10-12T11:11:04.027Z,58.63
2022-10-12T11:13:41.769Z,56.92
2022-10-12T11:16:17.069Z,56.74
2022-10-12T11:18:53.562Z,56.09
2022-10-12T11:21:43.106Z,56.56
2022-10-12T11:24:25.058Z,55.89
2022-10-12T11:26:57.469Z,56.35
2022-10-12T11:29:24.197Z,55.89
2022-10-12T11:32:31.852Z,54.84
2022-10-12T11:35:03.013Z,55.79
2022-10-12T11:37:42.712Z,54.73
2022-10-12T11:40:27.052Z,54.63
2022-10-12T11:43:12.167Z,54.69
2022-10-12T11:45:43.126Z,55.16
2022-10-12T11:48:19.706Z,53.63
2022-10-12T11:50:50.487Z,53.85
2022-10-12T11:53:27.686Z,53.72
2022-10-12T11:56:12.739Z,53.29
2022-10-12T11:58:59.934Z,52.94
2022-10-12T12:01:53.703Z,54.10
2022-10-12T12:04:45.006Z,53.34
2022-10-12T12:07:30.304Z,53.37
2022-10-12T12:09:56.759Z,54.14
2022-10-12T12:12:28.608Z,53.71
2022-10-12T12:14:55.041Z,53.90
2022-10-12T12:17:28.037Z,53.42
2022-10-12T12:19:59.615Z,53.56
2022-10-12T12:22:30.306Z,52.35
2022-10-12T12:25:04.460Z,52.57
2022-10-12T12:27:31.605Z,53.08
2022-10-12T12:30:00.605Z,52.75
2022-10-12T12:32:46.031Z,52.04
2022-10-12T12:35:40.190Z,52.17
2022-10-12T12:38:12.372Z,52.38
2022-10-12T12:40:53.523Z,52.62
2022-10-12T12:43:29.049Z,53.33
2022-10-12T12:46:23.167Z,53.53
2022-10-12T12:48:49.572Z,53.83
2022-10-12T12:51:35.767Z,54.45
2022-10-12T12:54:06.421Z,53.50
2022-10-12T12:56:51.356Z,53.51
2022-10-12T12:59:52.087Z,52.80
2022-10-12T13:02:48.043Z,52.40
2022-10-12T13:05:55.335Z,50.51
2022-10-12T13:08:24.701Z,49.63
2022-10-12T13:11:22.099Z,49.71
2022-10-12T13:14:33.986Z,50.08
2022-10-12T13:17:35.654Z,49.95
2022-10-12T13:20:19.659Z,49.18
2022-10-12T13:22:47.999Z,48.83
2022-10-12T13:25:36.564Z,49.29
2022-10-12T13:28:07.553Z,48.86
2022-10-12T13:30:51.682Z,48.10
2022-10-12T13:33:31.404Z,48.65
2022-10-12T13:36:05.633Z,47.95
2022-10-12T13:38:35.086Z,47.61
2022-10-12T13:41:07.791Z,47.88
2022-10-12T13:43:43.591Z,48.52
2022-10-12T13:46:15.220Z,48.63
2022-10-12T13:48:59.337Z,48.77
2022-10-12T13:51:30.126Z,49.15
2022-10-12T13:53:57.770Z,49.58
2022-10-12T13:56:27.998Z,49.68
2022-10-12T13:59:05.331Z,50.14
2022-10-12T14:01:47.686Z,50.61
2022-10-12T14:04:14.345Z,50.55
2022-10-12T14:06:40.911Z,50.61
2022-10-12T14:09:19.737Z,50.21
2022-10-12T14:11:47.322Z,50.58
2022-10-12T14:14:37.390Z,51.17
2022-10-12T14:17:04.145Z,51.36
2022-10-12T14:19:53.164Z,51.33
2022-10-12T14:22:37.908Z,51.60
2022-10-12T14:25:36.285Z,51.74
2022-10-12T14:28:06.709Z,52.20
2022-10-12T14:30:33.138Z,51.81
2022-10-12T14:33:16.438Z,51.71
2022-10-12T14:35:48.077Z,50.98
2022-10-12T14:38:39.591Z,51.86
2022-10-12T14:41:33.112Z,51.98
2022-10-12T14:44:20.207Z,51.82
2022-10-12T14:47:02.890Z,52.31
2022-10-12T14:49:40.891Z,52.08
2022-10-12T14:52:18.105Z,51.81
2022-10-12T14:54:44.608Z,51.74
2022-10-12T14:57:16.167Z,51.59
2022-10-12T14:59:43.017Z,51.99
2022-10-12T15:02:19.595Z,52.15
2022-10-12T15:04:47.082Z,52.32
2022-10-12T15:07:25.859Z,52.48
2022-10-12T15:09:52.617Z,52.81
2022-10-12T15:12:22.225Z,54.05
2022-10-12T15:14:50.185Z,54.00
2022-10-12T15:17:18.965Z,54.64
2022-10-12T15:19:47.692Z,54.55
2022-10-12T15:22:17.149Z,55.09
2022-10-12T15:24:44.182Z,55.08
2022-10-12T15:27:11.063Z,55.47
2022-10-12T15:29:37.919Z,54.59
2022-10-12T15:32:05.777Z,55.18
2022-10-12T15:34:32.213Z,55.61
2022-10-12T15:36:58.825Z,55.87
2022-10-12T15:39:25.477Z,56.10
2022-10-12T15:41:51.908Z,56.27
2022-10-12T15:44:18.588Z,56.89
2022-10-12T15:46:45.334Z,57.20
2022-10-12T15:49:14.147Z,57.66
2022-10-12T15:51:47.504Z,57.98
2022-10-12T15:54:14.593Z,58.21
2022-10-12T15:56:41.682Z,58.02
2022-10-12T15:59:08.619Z,58.92
2022-10-12T16:01:36.663Z,58.68
2022-10-12T16:04:05.665Z,58.69
2022-10-12T16:06:32.903Z,59.54
2022-10-12T16:08:59.398Z,59.53
2022-10-12T16:11:25.952Z,59.15
2022-10-12T16:13:56.536Z,59.53
2022-10-12T16:16:24.224Z,60.11
2022-10-12T16:18:53.731Z,60.63
2022-10-12T16:21:20.518Z,60.68
2022-10-12T16:23:47.081Z,61.01
2022-10-12T16:26:14.830Z,61.47
2022-10-12T16:28:41.911Z,62.07
2022-10-12T16:31:15.782Z,62.45
2022-10-12T16:33:42.845Z,62.92
2022-10-12T16:36:14.906Z,63.42
2022-10-12T16:38:42.966Z,63.82
2022-10-12T16:41:14.345Z,64.34
2022-10-12T16:43:40.932Z,64.94
2022-10-12T16:46:08.466Z,65.42
2022-10-12T16:48:35.389Z,65.69
2022-10-12T16:51:07.894Z,65.63
2022-10-12T16:53:34.929Z,65.97
2022-10-12T16:56:02.262Z,66.33
2022-10-12T16:58:28.762Z,66.83
2022-10-12T17:00:55.658Z,67.11
2022-10-12T17:03:22.105Z,67.47
2022-10-12T17:05:57.654Z,67.69
2022-10-12T17:08:24.125Z,67.74
2022-10-12T17:10:50.761Z,68.15
2022-10-12T17:13:17.263Z,68.26
2022-10-12T17:15:43.772Z,68.74
2022-10-12T17:18:10.339Z,68.94
2022-10-12T17:20:36.932Z,69.27
2022-10-12T17:23:03.494Z,69.24
2022-10-12T17:25:30.018Z,69.85
2022-10-12T17:27:56.480Z,69.82
2022-10-12T17:30:23.168Z,70.04
2022-10-12T17:32:49.709Z,70.53
2022-10-12T17:35:16.251Z,70.51
2022-10-12T17:37:42.946Z,71.13
2022-10-12T17:40:10.601Z,71.17
2022-10-12T17:42:37.466Z,71.78
2022-10-12T17:45:04.390Z,72.48
2022-10-12T17:47:30.877Z,72.73
2022-10-12T17:49:57.272Z,73.41
2022-10-12T17:52:23.808Z,74.28
2022-10-12T17:54:50.394Z,74.70
2022-10-12T17:57:17.311Z,75.03
2022-10-12T17:59:44.025Z,75.91
2022-10-12T18:02:10.779Z,76.03
2022-10-12T18:04:37.197Z,76.82
2022-10-12T18:07:03.676Z,76.96
2022-10-12T18:09:31.034Z,77.33
2022-10-12T18:11:57.476Z,77.57
2022-10-12T18:14:23.967Z,78.37
2022-10-12T18:16:50.630Z,78.57
2022-10-12T18:19:17.194Z,78.99
2022-10-12T18:21:44.069Z,79.47
2022-10-12T18:24:16.095Z,79.87
2022-10-12T18:26:47.420Z,79.75
2022-10-12T18:29:17.510Z,79.99
2022-10-12T18:31:44.078Z,80.75
2022-10-12T18:34:10.615Z,80.87
2022-10-12T18:36:37.490Z,80.79
2022-10-12T18:39:04.605Z,80.90
2022-10-12T18:41:32.300Z,81.18
2022-10-12T18:44:00.565Z,81.47
2022-10-12T18:46:31.610Z,81.10
2022-10-12T18:48:58.542Z,81.43
2022-10-12T18:51:34.241Z,81.88
2022-10-12T18:54:01.933Z,82.27
2022-10-12T18:56:29.726Z,81.96
2022-10-12T18:58:59.553Z,82.42
2022-10-12T19:01:28.098Z,82.04
2022-10-12T19:03:56.202Z,82.48
2022-10-12T19:06:25.327Z,83.00
2022-10-12T19:08:52.391Z,83.03
2022-10-12T19:11:21.158Z,82.97
2022-10-12T19:13:55.089Z,83.66
2022-10-12T19:16:22.550Z,83.47
2022-10-12T19:18:49.790Z,83.54
2022-10-12T19:21:18.500Z,83.69
2022-10-12T19:23:45.409Z,84.60
2022-10-12T19:26:15.277Z,84.13
2022-10-12T19:28:41.987Z,84.16
2022-10-12T19:31:11.218Z,84.48
2022-10-12T19:33:37.737Z,84.86
2022-10-12T19:36:06.026Z,84.94
2022-10-12T19:38:32.760Z,85.31
2022-10-12T19:40:59.491Z,84.90
2022-10-12T19:43:26.192Z,85.24
2022-10-12T19:45:52.736Z,85.56
2022-10-12T19:48:19.578Z,85.59
2022-10-12T19:50:46.241Z,85.71
2022-10-12T19:53:12.825Z,86.37
2022-10-12T19:55:39.683Z,86.80
2022-10-12T19:58:09.755Z,86.74
2022-10-12T20:00:36.971Z,87.05
2022-10-12T20:03:04.715Z,86.46
2022-10-12T20:05:31.162Z,87.04
2022-10-12T20:07:58.234Z,87.15
2022-10-12T20:10:24.827Z,87.34
2022-10-12T20:12:51.718Z,87.49
2022-10-12T20:15:18.211Z,87.69
2022-10-12T20:17:44.794Z,88.44
2022-10-12T20:20:11.404Z,88.45
2022-10-12T20:22:37.958Z,88.49
2022-10-12T20:25:09.432Z,88.80
2022-10-12T20:27:36.797Z,88.64
2022-10-12T20:30:04.779Z,88.89
2022-10-12T20:32:31.563Z,88.95
2022-10-12T20:34:57.986Z,88.50
2022-10-12T20:37:24.498Z,88.89
2022-10-12T20:39:52.448Z,89.01
2022-10-12T20:42:21.968Z,89.44
2022-10-12T20:44:49.629Z,89.47
2022-10-12T20:47:17.569Z,89.09
2022-10-12T20:49:44.612Z,89.44
2022-10-12T20:52:11.321Z,89.26
2022-10-12T20:54:38.225Z,89.41
2022-10-12T20:57:05.014Z,89.30
2022-10-12T20:59:34.374Z,89.31
2022-10-12T21:02:00.800Z,89.30
2022-10-12T21:04:30.495Z,89.83
2022-10-12T21:06:58.207Z,89.50
2022-10-12T21:09:24.670Z,89.76
2022-10-12T21:11:51.214Z,89.51
2022-10-12T21:14:17.703Z,89.68
2022-10-12T21:16:44.151Z,89.07
2022-10-12T21:19:15.421Z,89.54
2022-10-12T21:21:42.184Z,89.62
2022-10-12T21:24:10.273Z,89.69
2022-10-12T21:26:36.793Z,89.74
2022-10-12T21:29:03.341Z,89.68
2022-10-12T21:31:32.654Z,89.61
2022-10-12T21:34:02.166Z,89.89
2022-10-12T21:36:29.942Z,89.62
2022-10-12T21:38:56.965Z,89.84
2022-10-12T21:41:25.439Z,89.94
2022-10-12T21:43:52.793Z,89.67
2022-10-12T21:46:22.575Z,89.53
2022-10-12T21:48:49.903Z,89.50
2022-10-12T21:51:16.959Z,89.52
2022-10-12T21:53:43.486Z,89.81
2022-10-12T21:56:18.447Z,89.72
2022-10-12T21:58:45.883Z,90.58
2022-10-12T22:01:21.413Z,90.66
2022-10-12T22:03:56.519Z,90.72
2022-10-12T22:06:25.237Z,90.79
2022-10-12T22:08:54.963Z,90.85
2022-10-12T22:11:22.644Z,90.55
2022-10-12T22:13:49.555Z,90.52
2022-10-12T22:16:17.843Z,90.48
2022-10-12T22:18:45.348Z,90.96
2022-10-12T22:21:17.373Z,91.07
2022-10-12T22:23:45.100Z,91.08
2022-10-12T22:26:14.435Z,90.90
2022-10-12T22:28:48.493Z,90.62
2022-10-12T22:31:17.059Z,90.67
2022-10-12T22:33:43.899Z,90.73
2022-10-12T22:36:11.874Z,90.84
2022-10-12T22:38:38.889Z,90.57
2022-10-12T22:41:13.269Z,90.94
2022-10-12T22:43:46.724Z,90.61
2022-10-12T22:46:13.249Z,91.15
2022-10-12T22:48:40.108Z,91.26
2022-10-12T22:51:08.539Z,91.01
2022-10-12T22:53:36.101Z,91.21
2022-10-12T22:56:05.931Z,91.28
2022-10-12T22:58:33.137Z,91.10
2022-10-12T23:01:09.656Z,90.66
2022-10-12T23:03:36.834Z,90.84
2022-10-12T23:06:10.238Z,90.89
2022-10-12T23:08:37.458Z,91.06
2022-10-12T23:11:05.336Z,90.91
2022-10-12T23:13:34.411Z,91.34
2022-10-12T23:16:12.116Z,91.18
2022-10-12T23:18:39.269Z,91.29
2022-10-12T23:21:08.430Z,91.24
2022-10-12T23:23:36.132Z,91.01
2022-10-12T23:26:07.509Z,91.06
2022-10-12T23:28:34.310Z,91.06
2022-10-12T23:31:05.454Z,90.79
2022-10-12T23:33:32.216Z,90.93
2022-10-12T23:36:01.748Z,90.95
2022-10-12T23:38:30.018Z,90.92
2022-10-12T23:40:56.818Z,90.55
2022-10-12T23:43:23.645Z,90.87
2022-10-12T23:45:50.463Z,90.73
2022-10-12T23:48:16.902Z,90.59
2022-10-12T23:50:46.739Z,90.85
2022-10-12T23:53:13.854Z,90.71
2022-10-12T23:55:40.788Z,91.27
2022-10-12T23:58:07.259Z,90.80
